Hurleyville, New York
Current Conditions -  °F | °C
As of 4:35 AM on Thursday 18 Dec 2014 (Local Time) from KMSV Reporting Station
Overcast Overcast  
Wind Chill: -8°   Ceiling: 2700
Heat Index: -1°   Visibility: 10mi
Dew Point: -6°   Wind: 22mph
Humidity: 69%   Direction: 300°WNW
Pressure: 29.88"   Gusts: 30mph
Location:  41.74°N, 74.67°W
Report Text: KMSV 180935Z AUTO 30019G26KT 10SM OVC027 M01/M06 A2988 RMK AO1
Loading
Personal Weather Stations






























Interactive Weather Map New forecast layout! Learn more

10-Day Weather Forecast

Advertisements
Track Severe Weather on mobile